sensor_id;sensor_type;location;lat;lon;timestamp;P1;durP1;ratioP1;P2;durP2;ratioP2
69779;SDS011;57052;55.602;38.096;2023-02-01T00:01:53;23.02;;;8.30;;
69779;SDS011;57052;55.602;38.096;2023-02-01T00:04:19;26.35;;;9.23;;
69779;SDS011;57052;55.602;38.096;2023-02-01T00:06:44;21.27;;;7.70;;
69779;SDS011;57052;55.602;38.096;2023-02-01T00:09:10;23.65;;;8.00;;
69779;SDS011;57052;55.602;38.096;2023-02-01T00:11:36;23.88;;;8.73;;
69779;SDS011;57052;55.602;38.096;2023-02-01T00:14:01;24.63;;;7.80;;
69779;SDS011;57052;55.602;38.096;2023-02-01T00:16:28;21.65;;;7.95;;
69779;SDS011;57052;55.602;38.096;2023-02-01T00:18:59;17.77;;;6.60;;
69779;SDS011;57052;55.602;38.096;2023-02-01T00:21:27;22.88;;;7.90;;
69779;SDS011;57052;55.602;38.096;2023-02-01T00:23:52;21.55;;;8.40;;
69779;SDS011;57052;55.602;38.096;2023-02-01T00:26:22;23.02;;;7.53;;
69779;SDS011;57052;55.602;38.096;2023-02-01T00:28:55;20.13;;;7.95;;
69779;SDS011;57052;55.602;38.096;2023-02-01T00:31:20;20.15;;;7.75;;
69779;SDS011;57052;55.602;38.096;2023-02-01T00:33:47;22.70;;;8.27;;
69779;SDS011;57052;55.602;38.096;2023-02-01T00:36:13;21.67;;;8.15;;
69779;SDS011;57052;55.602;38.096;2023-02-01T00:38:39;22.88;;;7.43;;
69779;SDS011;57052;55.602;38.096;2023-02-01T00:41:12;19.40;;;7.60;;
69779;SDS011;57052;55.602;38.096;2023-02-01T00:43:43;24.77;;;8.43;;
69779;SDS011;57052;55.602;38.096;2023-02-01T00:46:09;23.02;;;8.30;;
69779;SDS011;57052;55.602;38.096;2023-02-01T00:48:36;25.15;;;8.70;;
69779;SDS011;57052;55.602;38.096;2023-02-01T00:51:03;21.27;;;7.57;;
69779;SDS011;57052;55.602;38.096;2023-02-01T00:53:30;22.17;;;9.32;;
69779;SDS011;57052;55.602;38.096;2023-02-01T00:55:56;22.08;;;7.80;;
69779;SDS011;57052;55.602;38.096;2023-02-01T00:58:22;21.83;;;7.90;;
69779;SDS011;57052;55.602;38.096;2023-02-01T01:01:04;19.63;;;7.68;;
69779;SDS011;57052;55.602;38.096;2023-02-01T01:03:32;21.65;;;8.27;;
69779;SDS011;57052;55.602;38.096;2023-02-01T01:06:00;21.08;;;8.23;;
69779;SDS011;57052;55.602;38.096;2023-02-01T01:08:28;22.90;;;9.13;;
69779;SDS011;57052;55.602;38.096;2023-02-01T01:10:54;22.25;;;8.82;;
69779;SDS011;57052;55.602;38.096;2023-02-01T01:13:19;24.33;;;8.63;;
69779;SDS011;57052;55.602;38.096;2023-02-01T01:15:45;25.02;;;8.75;;
69779;SDS011;57052;55.602;38.096;2023-02-01T01:18:11;21.33;;;8.35;;
69779;SDS011;57052;55.602;38.096;2023-02-01T01:20:37;19.73;;;7.70;;
69779;SDS011;57052;55.602;38.096;2023-02-01T01:23:04;21.45;;;9.10;;
69779;SDS011;57052;55.602;38.096;2023-02-01T01:25:32;22.85;;;8.18;;
69779;SDS011;57052;55.602;38.096;2023-02-01T01:27:57;22.77;;;8.80;;
69779;SDS011;57052;55.602;38.096;2023-02-01T01:30:23;28.25;;;10.10;;
69779;SDS011;57052;55.602;38.096;2023-02-01T01:32:49;20.65;;;8.10;;
69779;SDS011;57052;55.602;38.096;2023-02-01T01:35:15;23.63;;;8.73;;
69779;SDS011;57052;55.602;38.096;2023-02-01T01:37:40;21.90;;;8.65;;
69779;SDS011;57052;55.602;38.096;2023-02-01T01:40:06;21.48;;;8.73;;
69779;SDS011;57052;55.602;38.096;2023-02-01T01:42:38;25.85;;;8.88;;
69779;SDS011;57052;55.602;38.096;2023-02-01T01:47:55;22.80;;;7.57;;
69779;SDS011;57052;55.602;38.096;2023-02-01T01:50:27;22.35;;;8.88;;
69779;SDS011;57052;55.602;38.096;2023-02-01T01:52:56;27.27;;;9.35;;
69779;SDS011;57052;55.602;38.096;2023-02-01T01:55:26;22.70;;;7.93;;
69779;SDS011;57052;55.602;38.096;2023-02-01T01:57:59;23.50;;;8.65;;
69779;SDS011;57052;55.602;38.096;2023-02-01T02:00:30;23.05;;;8.40;;
69779;SDS011;57052;55.602;38.096;2023-02-01T02:02:58;24.08;;;8.82;;
69779;SDS011;57052;55.602;38.096;2023-02-01T02:05:29;21.00;;;7.75;;
69779;SDS011;57052;55.602;38.096;2023-02-01T02:07:57;25.13;;;8.88;;
69779;SDS011;57052;55.602;38.096;2023-02-01T02:10:28;23.15;;;8.18;;
69779;SDS011;57052;55.602;38.096;2023-02-01T02:13:13;21.27;;;7.93;;
69779;SDS011;57052;55.602;38.096;2023-02-01T02:15:42;23.75;;;8.60;;
69779;SDS011;57052;55.602;38.096;2023-02-01T02:18:19;21.67;;;8.38;;
69779;SDS011;57052;55.602;38.096;2023-02-01T02:21:07;23.88;;;9.43;;
69779;SDS011;57052;55.602;38.096;2023-02-01T02:23:55;24.15;;;9.13;;
69779;SDS011;57052;55.602;38.096;2023-02-01T02:29:35;19.30;;;8.38;;
69779;SDS011;57052;55.602;38.096;2023-02-01T02:35:14;25.83;;;8.70;;
69779;SDS011;57052;55.602;38.096;2023-02-01T02:37:43;24.15;;;8.50;;
69779;SDS011;57052;55.602;38.096;2023-02-01T02:40:32;22.27;;;8.35;;
69779;SDS011;57052;55.602;38.096;2023-02-01T02:43:22;22.10;;;8.73;;
69779;SDS011;57052;55.602;38.096;2023-02-01T02:46:16;21.00;;;8.18;;
69779;SDS011;57052;55.602;38.096;2023-02-01T02:49:48;20.60;;;8.45;;
69779;SDS011;57052;55.602;38.096;2023-02-01T02:52:27;22.05;;;8.43;;
69779;SDS011;57052;55.602;38.096;2023-02-01T02:55:05;20.48;;;8.05;;
69779;SDS011;57052;55.602;38.096;2023-02-01T02:57:37;23.13;;;8.35;;
69779;SDS011;57052;55.602;38.096;2023-02-01T03:00:26;24.48;;;8.27;;
69779;SDS011;57052;55.602;38.096;2023-02-01T03:03:14;19.35;;;7.63;;
69779;SDS011;57052;55.602;38.096;2023-02-01T03:05:58;21.63;;;7.93;;
69779;SDS011;57052;55.602;38.096;2023-02-01T03:08:25;22.20;;;8.00;;
69779;SDS011;57052;55.602;38.096;2023-02-01T03:11:05;20.30;;;7.47;;
69779;SDS011;57052;55.602;38.096;2023-02-01T03:13:48;19.23;;;8.02;;
69779;SDS011;57052;55.602;38.096;2023-02-01T03:16:25;21.70;;;8.05;;
69779;SDS011;57052;55.602;38.096;2023-02-01T03:21:38;21.63;;;8.60;;
69779;SDS011;57052;55.602;38.096;2023-02-01T03:24:11;22.65;;;8.27;;
69779;SDS011;57052;55.602;38.096;2023-02-01T03:26:41;17.83;;;7.03;;
69779;SDS011;57052;55.602;38.096;2023-02-01T03:29:14;21.23;;;7.75;;
69779;SDS011;57052;55.602;38.096;2023-02-01T03:31:44;20.55;;;8.27;;
69779;SDS011;57052;55.602;38.096;2023-02-01T03:34:11;21.48;;;8.32;;
69779;SDS011;57052;55.602;38.096;2023-02-01T03:39:29;21.30;;;8.35;;
69779;SDS011;57052;55.602;38.096;2023-02-01T03:42:19;20.25;;;7.95;;
69779;SDS011;57052;55.602;38.096;2023-02-01T03:47:29;22.38;;;8.35;;
69779;SDS011;57052;55.602;38.096;2023-02-01T03:50:00;23.05;;;7.85;;
69779;SDS011;57052;55.602;38.096;2023-02-01T03:52:32;24.77;;;8.13;;
69779;SDS011;57052;55.602;38.096;2023-02-01T03:55:07;24.20;;;8.27;;
69779;SDS011;57052;55.602;38.096;2023-02-01T03:57:34;21.02;;;8.30;;
69779;SDS011;57052;55.602;38.096;2023-02-01T04:00:07;22.75;;;8.73;;
69779;SDS011;57052;55.602;38.096;2023-02-01T04:02:42;21.98;;;8.27;;
69779;SDS011;57052;55.602;38.096;2023-02-01T04:05:08;23.27;;;8.43;;
69779;SDS011;57052;55.602;38.096;2023-02-01T04:07:34;21.50;;;7.85;;
69779;SDS011;57052;55.602;38.096;2023-02-01T04:09:59;21.42;;;7.97;;
69779;SDS011;57052;55.602;38.096;2023-02-01T04:12:25;21.23;;;8.05;;
69779;SDS011;57052;55.602;38.096;2023-02-01T04:14:51;19.45;;;7.65;;
69779;SDS011;57052;55.602;38.096;2023-02-01T04:17:16;21.60;;;8.80;;
69779;SDS011;57052;55.602;38.096;2023-02-01T04:19:42;24.45;;;8.30;;
69779;SDS011;57052;55.602;38.096;2023-02-01T04:22:08;25.48;;;8.85;;
69779;SDS011;57052;55.602;38.096;2023-02-01T04:24:33;22.75;;;8.57;;
69779;SDS011;57052;55.602;38.096;2023-02-01T04:26:59;18.92;;;7.40;;
69779;SDS011;57052;55.602;38.096;2023-02-01T04:29:24;27.85;;;8.68;;
69779;SDS011;57052;55.602;38.096;2023-02-01T04:31:50;24.25;;;9.23;;
69779;SDS011;57052;55.602;38.096;2023-02-01T04:34:15;24.95;;;8.13;;
69779;SDS011;57052;55.602;38.096;2023-02-01T04:36:41;21.70;;;8.32;;
69779;SDS011;57052;55.602;38.096;2023-02-01T04:39:08;22.60;;;8.15;;
69779;SDS011;57052;55.602;38.096;2023-02-01T04:41:34;22.20;;;8.27;;
69779;SDS011;57052;55.602;38.096;2023-02-01T04:44:02;22.70;;;8.63;;
69779;SDS011;57052;55.602;38.096;2023-02-01T04:46:28;23.08;;;8.65;;
69779;SDS011;57052;55.602;38.096;2023-02-01T04:48:54;21.73;;;8.20;;
69779;SDS011;57052;55.602;38.096;2023-02-01T04:51:19;25.85;;;9.25;;
69779;SDS011;57052;55.602;38.096;2023-02-01T04:53:45;28.40;;;9.68;;
69779;SDS011;57052;55.602;38.096;2023-02-01T04:56:10;25.77;;;8.82;;
69779;SDS011;57052;55.602;38.096;2023-02-01T04:58:38;22.10;;;8.80;;
69779;SDS011;57052;55.602;38.096;2023-02-01T05:01:06;21.95;;;9.07;;
69779;SDS011;57052;55.602;38.096;2023-02-01T05:03:32;23.75;;;9.10;;
69779;SDS011;57052;55.602;38.096;2023-02-01T05:05:58;22.13;;;8.25;;
69779;SDS011;57052;55.602;38.096;2023-02-01T05:08:25;24.52;;;8.90;;
69779;SDS011;57052;55.602;38.096;2023-02-01T05:10:52;22.58;;;9.10;;
69779;SDS011;57052;55.602;38.096;2023-02-01T05:13:18;24.80;;;8.88;;
69779;SDS011;57052;55.602;38.096;2023-02-01T05:16:02;26.05;;;9.68;;
69779;SDS011;57052;55.602;38.096;2023-02-01T05:18:28;26.40;;;9.57;;
69779;SDS011;57052;55.602;38.096;2023-02-01T05:20:54;23.95;;;8.52;;
69779;SDS011;57052;55.602;38.096;2023-02-01T05:23:19;22.27;;;9.85;;
69779;SDS011;57052;55.602;38.096;2023-02-01T05:25:45;24.02;;;9.43;;
69779;SDS011;57052;55.602;38.096;2023-02-01T05:28:10;23.52;;;9.43;;
69779;SDS011;57052;55.602;38.096;2023-02-01T05:30:36;24.75;;;9.63;;
69779;SDS011;57052;55.602;38.096;2023-02-01T05:33:02;25.55;;;10.10;;
69779;SDS011;57052;55.602;38.096;2023-02-01T05:35:28;23.85;;;9.25;;
69779;SDS011;57052;55.602;38.096;2023-02-01T05:37:54;24.63;;;9.10;;
69779;SDS011;57052;55.602;38.096;2023-02-01T05:40:19;22.77;;;9.40;;
69779;SDS011;57052;55.602;38.096;2023-02-01T05:42:45;23.92;;;8.98;;
69779;SDS011;57052;55.602;38.096;2023-02-01T05:45:11;26.83;;;9.48;;
69779;SDS011;57052;55.602;38.096;2023-02-01T05:47:36;26.98;;;9.60;;
69779;SDS011;57052;55.602;38.096;2023-02-01T05:50:02;25.83;;;9.98;;
69779;SDS011;57052;55.602;38.096;2023-02-01T05:52:29;24.40;;;9.45;;
69779;SDS011;57052;55.602;38.096;2023-02-01T05:54:55;24.00;;;9.10;;
69779;SDS011;57052;55.602;38.096;2023-02-01T05:57:20;25.45;;;9.60;;
69779;SDS011;57052;55.602;38.096;2023-02-01T05:59:46;24.33;;;9.60;;
69779;SDS011;57052;55.602;38.096;2023-02-01T06:02:12;25.38;;;10.20;;
69779;SDS011;57052;55.602;38.096;2023-02-01T06:04:38;25.25;;;9.85;;
69779;SDS011;57052;55.602;38.096;2023-02-01T06:07:04;26.90;;;9.82;;
69779;SDS011;57052;55.602;38.096;2023-02-01T06:09:33;24.85;;;9.30;;
69779;SDS011;57052;55.602;38.096;2023-02-01T06:11:59;25.23;;;10.68;;
69779;SDS011;57052;55.602;38.096;2023-02-01T06:14:26;32.40;;;11.70;;
69779;SDS011;57052;55.602;38.096;2023-02-01T06:16:53;26.95;;;10.80;;
69779;SDS011;57052;55.602;38.096;2023-02-01T06:19:22;29.17;;;10.80;;
69779;SDS011;57052;55.602;38.096;2023-02-01T06:21:48;31.10;;;12.30;;
69779;SDS011;57052;55.602;38.096;2023-02-01T06:24:13;27.88;;;11.13;;
69779;SDS011;57052;55.602;38.096;2023-02-01T06:26:39;27.17;;;10.65;;
69779;SDS011;57052;55.602;38.096;2023-02-01T06:29:12;29.20;;;10.23;;
69779;SDS011;57052;55.602;38.096;2023-02-01T06:31:38;25.40;;;10.00;;
69779;SDS011;57052;55.602;38.096;2023-02-01T06:34:03;24.45;;;10.07;;
69779;SDS011;57052;55.602;38.096;2023-02-01T06:36:29;29.98;;;10.70;;
69779;SDS011;57052;55.602;38.096;2023-02-01T06:38:55;30.17;;;11.73;;
69779;SDS011;57052;55.602;38.096;2023-02-01T06:41:22;26.95;;;10.25;;
69779;SDS011;57052;55.602;38.096;2023-02-01T06:43:48;28.20;;;11.35;;
69779;SDS011;57052;55.602;38.096;2023-02-01T06:46:14;24.95;;;10.45;;
69779;SDS011;57052;55.602;38.096;2023-02-01T06:48:40;27.40;;;10.82;;
69779;SDS011;57052;55.602;38.096;2023-02-01T06:51:06;28.00;;;11.45;;
69779;SDS011;57052;55.602;38.096;2023-02-01T06:53:41;30.52;;;11.43;;
69779;SDS011;57052;55.602;38.096;2023-02-01T06:56:08;28.10;;;11.75;;
69779;SDS011;57052;55.602;38.096;2023-02-01T06:58:34;31.38;;;12.18;;
69779;SDS011;57052;55.602;38.096;2023-02-01T07:01:07;28.42;;;11.00;;
69779;SDS011;57052;55.602;38.096;2023-02-01T07:03:34;28.92;;;10.63;;
69779;SDS011;57052;55.602;38.096;2023-02-01T07:05:59;25.85;;;10.40;;
69779;SDS011;57052;55.602;38.096;2023-02-01T07:08:28;25.50;;;9.45;;
69779;SDS011;57052;55.602;38.096;2023-02-01T07:10:55;28.45;;;10.90;;
69779;SDS011;57052;55.602;38.096;2023-02-01T07:13:21;27.92;;;10.93;;
69779;SDS011;57052;55.602;38.096;2023-02-01T07:15:47;26.00;;;9.98;;
69779;SDS011;57052;55.602;38.096;2023-02-01T07:18:13;26.95;;;10.63;;
69779;SDS011;57052;55.602;38.096;2023-02-01T07:20:39;26.40;;;10.18;;
69779;SDS011;57052;55.602;38.096;2023-02-01T07:23:05;26.45;;;9.32;;
69779;SDS011;57052;55.602;38.096;2023-02-01T07:25:31;28.92;;;10.50;;
69779;SDS011;57052;55.602;38.096;2023-02-01T07:27:57;25.88;;;10.02;;
69779;SDS011;57052;55.602;38.096;2023-02-01T07:30:23;24.48;;;10.10;;
69779;SDS011;57052;55.602;38.096;2023-02-01T07:32:49;23.42;;;9.27;;
69779;SDS011;57052;55.602;38.096;2023-02-01T07:35:14;25.77;;;9.38;;
69779;SDS011;57052;55.602;38.096;2023-02-01T07:37:40;23.55;;;9.20;;
69779;SDS011;57052;55.602;38.096;2023-02-01T07:40:06;24.42;;;9.95;;
69779;SDS011;57052;55.602;38.096;2023-02-01T07:42:32;25.08;;;9.18;;
69779;SDS011;57052;55.602;38.096;2023-02-01T07:44:57;25.25;;;9.30;;
69779;SDS011;57052;55.602;38.096;2023-02-01T07:47:23;25.38;;;9.25;;
69779;SDS011;57052;55.602;38.096;2023-02-01T07:49:48;21.98;;;9.75;;
69779;SDS011;57052;55.602;38.096;2023-02-01T07:52:14;24.45;;;10.07;;
69779;SDS011;57052;55.602;38.096;2023-02-01T07:54:42;31.23;;;10.35;;
69779;SDS011;57052;55.602;38.096;2023-02-01T07:57:08;23.92;;;9.52;;
69779;SDS011;57052;55.602;38.096;2023-02-01T07:59:36;29.67;;;9.80;;
69779;SDS011;57052;55.602;38.096;2023-02-01T08:02:21;26.48;;;9.77;;
69779;SDS011;57052;55.602;38.096;2023-02-01T08:04:47;25.73;;;10.70;;
69779;SDS011;57052;55.602;38.096;2023-02-01T08:07:13;23.33;;;9.55;;
69779;SDS011;57052;55.602;38.096;2023-02-01T08:09:38;24.90;;;9.15;;
69779;SDS011;57052;55.602;38.096;2023-02-01T08:12:04;22.50;;;9.02;;
69779;SDS011;57052;55.602;38.096;2023-02-01T08:14:30;24.65;;;9.55;;
69779;SDS011;57052;55.602;38.096;2023-02-01T08:16:55;24.40;;;9.63;;
69779;SDS011;57052;55.602;38.096;2023-02-01T08:19:21;25.02;;;9.68;;
69779;SDS011;57052;55.602;38.096;2023-02-01T08:21:46;22.33;;;9.38;;
69779;SDS011;57052;55.602;38.096;2023-02-01T08:24:13;22.60;;;8.52;;
69779;SDS011;57052;55.602;38.096;2023-02-01T08:26:39;20.10;;;8.23;;
69779;SDS011;57052;55.602;38.096;2023-02-01T08:29:05;22.92;;;8.93;;
69779;SDS011;57052;55.602;38.096;2023-02-01T08:31:33;21.65;;;9.07;;
69779;SDS011;57052;55.602;38.096;2023-02-01T08:33:59;21.20;;;8.75;;
69779;SDS011;57052;55.602;38.096;2023-02-01T08:36:27;20.63;;;8.77;;
69779;SDS011;57052;55.602;38.096;2023-02-01T08:38:55;20.38;;;8.38;;
69779;SDS011;57052;55.602;38.096;2023-02-01T08:41:23;22.20;;;8.90;;
69779;SDS011;57052;55.602;38.096;2023-02-01T08:43:50;20.30;;;8.77;;
69779;SDS011;57052;55.602;38.096;2023-02-01T08:46:16;21.52;;;8.20;;
69779;SDS011;57052;55.602;38.096;2023-02-01T08:48:42;21.17;;;8.90;;
69779;SDS011;57052;55.602;38.096;2023-02-01T08:51:11;23.48;;;8.73;;
69779;SDS011;57052;55.602;38.096;2023-02-01T08:53:38;22.08;;;9.05;;
69779;SDS011;57052;55.602;38.096;2023-02-01T08:56:08;26.98;;;9.45;;
69779;SDS011;57052;55.602;38.096;2023-02-01T08:58:36;25.40;;;9.52;;
69779;SDS011;57052;55.602;38.096;2023-02-01T09:01:12;24.75;;;9.80;;
69779;SDS011;57052;55.602;38.096;2023-02-01T09:03:40;23.73;;;9.27;;
69779;SDS011;57052;55.602;38.096;2023-02-01T09:06:07;30.00;;;10.65;;
69779;SDS011;57052;55.602;38.096;2023-02-01T09:08:35;27.85;;;10.18;;
69779;SDS011;57052;55.602;38.096;2023-02-01T09:11:05;27.85;;;11.35;;
69779;SDS011;57052;55.602;38.096;2023-02-01T09:13:33;29.48;;;11.55;;
69779;SDS011;57052;55.602;38.096;2023-02-01T09:15:59;31.80;;;11.70;;
69779;SDS011;57052;55.602;38.096;2023-02-01T09:18:25;30.88;;;11.23;;
69779;SDS011;57052;55.602;38.096;2023-02-01T09:20:51;30.42;;;11.27;;
69779;SDS011;57052;55.602;38.096;2023-02-01T09:23:17;29.40;;;12.00;;
69779;SDS011;57052;55.602;38.096;2023-02-01T09:25:45;30.08;;;11.73;;
69779;SDS011;57052;55.602;38.096;2023-02-01T09:28:11;28.02;;;11.05;;
69779;SDS011;57052;55.602;38.096;2023-02-01T09:30:36;27.02;;;11.10;;
69779;SDS011;57052;55.602;38.096;2023-02-01T09:33:03;34.58;;;12.00;;
69779;SDS011;57052;55.602;38.096;2023-02-01T09:35:28;29.73;;;10.82;;
69779;SDS011;57052;55.602;38.096;2023-02-01T09:37:54;28.13;;;11.25;;
69779;SDS011;57052;55.602;38.096;2023-02-01T09:40:20;27.60;;;11.80;;
69779;SDS011;57052;55.602;38.096;2023-02-01T09:42:50;26.73;;;10.80;;
69779;SDS011;57052;55.602;38.096;2023-02-01T09:45:49;26.92;;;10.23;;
69779;SDS011;57052;55.602;38.096;2023-02-01T09:48:38;28.67;;;11.30;;
69779;SDS011;57052;55.602;38.096;2023-02-01T09:51:11;26.35;;;10.80;;
69779;SDS011;57052;55.602;38.096;2023-02-01T09:58:37;28.95;;;10.65;;
69779;SDS011;57052;55.602;38.096;2023-02-01T10:01:20;26.20;;;10.43;;
69779;SDS011;57052;55.602;38.096;2023-02-01T10:03:48;26.15;;;10.30;;
69779;SDS011;57052;55.602;38.096;2023-02-01T10:06:30;26.80;;;10.65;;
69779;SDS011;57052;55.602;38.096;2023-02-01T10:16:51;27.50;;;10.88;;
69779;SDS011;57052;55.602;38.096;2023-02-01T10:25:07;28.67;;;11.35;;
69779;SDS011;57052;55.602;38.096;2023-02-01T10:27:42;28.10;;;11.00;;
69779;SDS011;57052;55.602;38.096;2023-02-01T10:32:47;27.73;;;10.18;;
69779;SDS011;57052;55.602;38.096;2023-02-01T10:35:30;27.98;;;10.43;;
69779;SDS011;57052;55.602;38.096;2023-02-01T10:38:44;28.73;;;10.35;;
69779;SDS011;57052;55.602;38.096;2023-02-01T10:41:15;25.75;;;10.60;;
69779;SDS011;57052;55.602;38.096;2023-02-01T10:43:48;29.45;;;10.45;;
69779;SDS011;57052;55.602;38.096;2023-02-01T10:48:45;24.13;;;9.70;;
69779;SDS011;57052;55.602;38.096;2023-02-01T10:51:14;28.58;;;10.55;;
69779;SDS011;57052;55.602;38.096;2023-02-01T10:53:50;27.70;;;10.85;;
69779;SDS011;57052;55.602;38.096;2023-02-01T10:56:25;30.25;;;10.23;;
69779;SDS011;57052;55.602;38.096;2023-02-01T10:58:59;27.77;;;9.77;;
69779;SDS011;57052;55.602;38.096;2023-02-01T11:03:55;25.65;;;10.73;;
69779;SDS011;57052;55.602;38.096;2023-02-01T11:09:00;24.58;;;10.10;;
69779;SDS011;57052;55.602;38.096;2023-02-01T11:14:20;25.42;;;10.45;;
69779;SDS011;57052;55.602;38.096;2023-02-01T11:16:56;26.05;;;9.77;;
69779;SDS011;57052;55.602;38.096;2023-02-01T11:19:22;24.27;;;9.88;;
69779;SDS011;57052;55.602;38.096;2023-02-01T11:21:51;25.73;;;9.40;;
69779;SDS011;57052;55.602;38.096;2023-02-01T11:24:23;25.50;;;9.15;;
69779;SDS011;57052;55.602;38.096;2023-02-01T11:26:54;24.30;;;9.77;;
69779;SDS011;57052;55.602;38.096;2023-02-01T11:29:21;21.90;;;9.07;;
69779;SDS011;57052;55.602;38.096;2023-02-01T11:31:55;26.13;;;9.15;;
69779;SDS011;57052;55.602;38.096;2023-02-01T11:34:26;25.38;;;9.18;;
69779;SDS011;57052;55.602;38.096;2023-02-01T11:37:01;27.02;;;9.52;;
69779;SDS011;57052;55.602;38.096;2023-02-01T11:39:29;24.10;;;9.00;;
69779;SDS011;57052;55.602;38.096;2023-02-01T11:42:05;28.45;;;10.00;;
69779;SDS011;57052;55.602;38.096;2023-02-01T11:49:50;22.83;;;8.45;;
69779;SDS011;57052;55.602;38.096;2023-02-01T11:53:05;24.48;;;8.40;;
69779;SDS011;57052;55.602;38.096;2023-02-01T11:58:20;23.60;;;9.52;;
69779;SDS011;57052;55.602;38.096;2023-02-01T12:01:07;26.15;;;9.15;;
69779;SDS011;57052;55.602;38.096;2023-02-01T12:09:17;17.55;;;7.32;;
69779;SDS011;57052;55.602;38.096;2023-02-01T12:26:01;20.85;;;7.40;;
69779;SDS011;57052;55.602;38.096;2023-02-01T12:43:01;22.67;;;8.45;;
69779;SDS011;57052;55.602;38.096;2023-02-01T12:45:39;24.60;;;8.82;;
69779;SDS011;57052;55.602;38.096;2023-02-01T12:51:02;20.42;;;8.52;;
69779;SDS011;57052;55.602;38.096;2023-02-01T12:56:46;22.30;;;9.27;;
69779;SDS011;57052;55.602;38.096;2023-02-01T12:59:25;25.45;;;8.77;;
69779;SDS011;57052;55.602;38.096;2023-02-01T13:07:21;23.88;;;9.60;;
69779;SDS011;57052;55.602;38.096;2023-02-01T13:10:00;24.77;;;9.05;;
69779;SDS011;57052;55.602;38.096;2023-02-01T13:12:33;24.55;;;9.25;;
69779;SDS011;57052;55.602;38.096;2023-02-01T13:15:05;24.15;;;10.07;;
69779;SDS011;57052;55.602;38.096;2023-02-01T13:17:39;24.90;;;9.70;;
69779;SDS011;57052;55.602;38.096;2023-02-01T13:23:01;24.70;;;9.60;;
69779;SDS011;57052;55.602;38.096;2023-02-01T13:28:21;23.17;;;9.45;;
69779;SDS011;57052;55.602;38.096;2023-02-01T13:31:17;23.05;;;8.95;;
69779;SDS011;57052;55.602;38.096;2023-02-01T13:41:55;21.75;;;10.07;;
69779;SDS011;57052;55.602;38.096;2023-02-01T13:44:28;25.88;;;9.93;;
69779;SDS011;57052;55.602;38.096;2023-02-01T13:47:00;28.48;;;10.77;;
69779;SDS011;57052;55.602;38.096;2023-02-01T13:49:37;27.85;;;10.88;;
69779;SDS011;57052;55.602;38.096;2023-02-01T13:52:06;26.58;;;10.98;;
69779;SDS011;57052;55.602;38.096;2023-02-01T13:54:46;24.13;;;10.05;;
69779;SDS011;57052;55.602;38.096;2023-02-01T13:57:34;25.60;;;10.00;;
69779;SDS011;57052;55.602;38.096;2023-02-01T14:00:45;25.38;;;9.02;;
69779;SDS011;57052;55.602;38.096;2023-02-01T14:23:58;23.52;;;9.18;;
69779;SDS011;57052;55.602;38.096;2023-02-01T14:32:23;22.83;;;8.20;;
69779;SDS011;57052;55.602;38.096;2023-02-01T14:58:31;24.35;;;8.85;;
69779;SDS011;57052;55.602;38.096;2023-02-01T15:01:23;25.75;;;9.13;;
69779;SDS011;57052;55.602;38.096;2023-02-01T15:03:55;23.02;;;8.68;;
69779;SDS011;57052;55.602;38.096;2023-02-01T15:06:39;24.38;;;9.70;;
69779;SDS011;57052;55.602;38.096;2023-02-01T15:14:19;23.80;;;8.43;;
69779;SDS011;57052;55.602;38.096;2023-02-01T15:16:45;25.65;;;9.35;;
69779;SDS011;57052;55.602;38.096;2023-02-01T15:19:18;24.35;;;8.90;;
69779;SDS011;57052;55.602;38.096;2023-02-01T15:21:50;26.17;;;9.88;;
69779;SDS011;57052;55.602;38.096;2023-02-01T15:24:30;27.20;;;9.45;;
69779;SDS011;57052;55.602;38.096;2023-02-01T15:27:02;26.60;;;8.88;;
69779;SDS011;57052;55.602;38.096;2023-02-01T15:29:30;25.52;;;9.13;;
69779;SDS011;57052;55.602;38.096;2023-02-01T15:31:57;23.17;;;9.15;;
69779;SDS011;57052;55.602;38.096;2023-02-01T15:34:33;23.67;;;9.02;;
69779;SDS011;57052;55.602;38.096;2023-02-01T15:37:14;22.75;;;9.00;;
69779;SDS011;57052;55.602;38.096;2023-02-01T15:40:30;23.17;;;8.95;;
69779;SDS011;57052;55.602;38.096;2023-02-01T15:42:40;24.00;;;9.25;;
69779;SDS011;57052;55.602;38.096;2023-02-01T15:45:27;20.02;;;8.35;;
69779;SDS011;57052;55.602;38.096;2023-02-01T15:47:55;24.05;;;9.23;;
69779;SDS011;57052;55.602;38.096;2023-02-01T15:50:22;23.08;;;8.90;;
69779;SDS011;57052;55.602;38.096;2023-02-01T15:52:49;23.55;;;8.60;;
69779;SDS011;57052;55.602;38.096;2023-02-01T15:55:18;22.83;;;8.93;;
69779;SDS011;57052;55.602;38.096;2023-02-01T15:57:45;21.92;;;8.23;;
69779;SDS011;57052;55.602;38.096;2023-02-01T16:00:24;23.85;;;8.80;;
69779;SDS011;57052;55.602;38.096;2023-02-01T16:02:57;21.52;;;8.20;;
69779;SDS011;57052;55.602;38.096;2023-02-01T16:08:05;21.35;;;8.20;;
69779;SDS011;57052;55.602;38.096;2023-02-01T16:10:41;22.73;;;9.52;;
69779;SDS011;57052;55.602;38.096;2023-02-01T16:13:08;20.52;;;8.27;;
69779;SDS011;57052;55.602;38.096;2023-02-01T16:15:34;20.05;;;7.93;;
69779;SDS011;57052;55.602;38.096;2023-02-01T16:18:00;19.75;;;8.50;;
69779;SDS011;57052;55.602;38.096;2023-02-01T16:20:25;23.88;;;9.25;;
69779;SDS011;57052;55.602;38.096;2023-02-01T16:22:51;24.13;;;9.40;;
69779;SDS011;57052;55.602;38.096;2023-02-01T16:25:17;22.13;;;8.63;;
69779;SDS011;57052;55.602;38.096;2023-02-01T16:27:42;24.92;;;9.68;;
69779;SDS011;57052;55.602;38.096;2023-02-01T16:30:08;23.02;;;8.95;;
69779;SDS011;57052;55.602;38.096;2023-02-01T16:32:35;22.38;;;9.23;;
69779;SDS011;57052;55.602;38.096;2023-02-01T16:35:05;25.55;;;9.40;;
69779;SDS011;57052;55.602;38.096;2023-02-01T16:37:40;24.55;;;9.35;;
69779;SDS011;57052;55.602;38.096;2023-02-01T16:40:12;25.98;;;9.95;;
69779;SDS011;57052;55.602;38.096;2023-02-01T16:42:39;24.60;;;9.40;;
69779;SDS011;57052;55.602;38.096;2023-02-01T16:45:04;23.58;;;9.70;;
69779;SDS011;57052;55.602;38.096;2023-02-01T16:47:31;23.05;;;8.77;;
69779;SDS011;57052;55.602;38.096;2023-02-01T16:49:56;24.13;;;9.45;;
69779;SDS011;57052;55.602;38.096;2023-02-01T16:52:23;23.05;;;9.10;;
69779;SDS011;57052;55.602;38.096;2023-02-01T16:54:51;20.92;;;8.55;;
69779;SDS011;57052;55.602;38.096;2023-02-01T16:57:19;24.83;;;9.07;;
69779;SDS011;57052;55.602;38.096;2023-02-01T16:59:47;22.15;;;9.63;;
69779;SDS011;57052;55.602;38.096;2023-02-01T17:02:14;24.23;;;9.07;;
69779;SDS011;57052;55.602;38.096;2023-02-01T17:04:41;24.17;;;9.82;;
69779;SDS011;57052;55.602;38.096;2023-02-01T17:07:11;24.75;;;9.93;;
69779;SDS011;57052;55.602;38.096;2023-02-01T17:09:39;22.73;;;8.88;;
69779;SDS011;57052;55.602;38.096;2023-02-01T17:12:05;25.27;;;9.98;;
69779;SDS011;57052;55.602;38.096;2023-02-01T17:14:31;25.33;;;9.77;;
69779;SDS011;57052;55.602;38.096;2023-02-01T17:17:01;26.65;;;10.52;;
69779;SDS011;57052;55.602;38.096;2023-02-01T17:19:27;23.27;;;9.40;;
69779;SDS011;57052;55.602;38.096;2023-02-01T17:21:53;25.15;;;9.23;;
69779;SDS011;57052;55.602;38.096;2023-02-01T17:24:24;23.85;;;9.27;;
69779;SDS011;57052;55.602;38.096;2023-02-01T17:26:52;24.20;;;9.52;;
69779;SDS011;57052;55.602;38.096;2023-02-01T17:29:17;22.75;;;9.02;;
69779;SDS011;57052;55.602;38.096;2023-02-01T17:31:44;22.73;;;9.43;;